createdAt,value
2023-03-17T00:01:51.672Z,8.65
2023-03-17T00:04:22.523Z,8.52
2023-03-17T00:06:49.269Z,8.50
2023-03-17T00:09:17.689Z,8.51
2023-03-17T00:11:45.764Z,8.53
2023-03-17T00:14:12.700Z,8.50
2023-03-17T00:16:42.667Z,8.47
2023-03-17T00:19:18.726Z,8.13
2023-03-17T00:21:51.962Z,8.00
2023-03-17T00:24:18.764Z,8.40
2023-03-17T00:26:45.606Z,8.39
2023-03-17T00:29:16.736Z,7.92
2023-03-17T00:31:45.485Z,7.83
2023-03-17T00:34:19.130Z,7.93
2023-03-17T00:36:48.615Z,8.27
2023-03-17T00:39:18.869Z,8.27
2023-03-17T00:44:13.006Z,8.17
2023-03-17T00:46:41.760Z,7.76
2023-03-17T00:49:19.564Z,8.16
2023-03-17T00:51:47.180Z,7.81
2023-03-17T00:54:14.674Z,8.13
2023-03-17T00:56:42.615Z,8.13
2023-03-17T00:59:30.041Z,8.11
2023-03-17T01:01:58.208Z,8.11
2023-03-17T01:04:25.973Z,7.75
2023-03-17T01:06:55.342Z,8.09
2023-03-17T01:09:26.547Z,6.81
2023-03-17T01:11:55.123Z,7.76
2023-03-17T01:14:25.066Z,7.68
2023-03-17T01:16:53.500Z,8.05
2023-03-17T01:19:23.272Z,8.04
2023-03-17T01:21:52.487Z,7.86
2023-03-17T01:24:19.771Z,7.64
2023-03-17T01:26:47.023Z,7.95
2023-03-17T01:29:14.443Z,7.49
2023-03-17T01:31:41.297Z,7.78
2023-03-17T01:34:08.154Z,7.44
2023-03-17T01:36:35.921Z,7.81
2023-03-17T01:39:05.592Z,7.81
2023-03-17T01:41:38.104Z,7.48
2023-03-17T01:44:07.488Z,7.83
2023-03-17T01:46:37.193Z,7.84
2023-03-17T01:49:22.851Z,7.84
2023-03-17T01:51:53.004Z,7.82
2023-03-17T01:54:27.323Z,7.81
2023-03-17T01:56:58.055Z,7.76
2023-03-17T01:59:34.139Z,7.32
2023-03-17T02:02:08.838Z,7.68
2023-03-17T02:04:38.882Z,7.09
2023-03-17T02:07:06.568Z,7.55
2023-03-17T02:09:34.435Z,7.25
2023-03-17T02:12:02.784Z,7.25
2023-03-17T02:14:30.211Z,7.59
2023-03-17T02:16:57.609Z,7.18
2023-03-17T02:19:24.558Z,7.14
2023-03-17T02:21:54.483Z,7.56
2023-03-17T02:24:28.305Z,7.58
2023-03-17T02:26:59.480Z,7.19
2023-03-17T02:29:28.794Z,7.42
2023-03-17T02:31:55.478Z,7.55
2023-03-17T02:34:22.574Z,7.17
2023-03-17T02:36:52.026Z,7.22
2023-03-17T02:39:19.056Z,7.62
2023-03-17T02:41:48.090Z,7.64
2023-03-17T02:44:17.253Z,7.64
2023-03-17T02:46:44.458Z,6.74
2023-03-17T02:49:12.121Z,7.64
2023-03-17T02:51:41.766Z,7.64
2023-03-17T02:54:08.523Z,7.61
2023-03-17T02:56:36.194Z,7.35
2023-03-17T02:59:03.636Z,7.55
2023-03-17T03:01:31.028Z,7.58
2023-03-17T03:03:58.822Z,7.68
2023-03-17T03:06:25.904Z,7.68
2023-03-17T03:08:55.669Z,7.68
2023-03-17T03:11:23.380Z,7.66
2023-03-17T03:13:50.387Z,7.33
2023-03-17T03:16:18.153Z,7.21
2023-03-17T03:18:45.447Z,7.35
2023-03-17T03:21:12.160Z,7.24
2023-03-17T03:23:38.964Z,7.67
2023-03-17T03:26:07.042Z,7.66
2023-03-17T03:28:33.741Z,7.66
2023-03-17T03:31:01.688Z,7.67
2023-03-17T03:33:28.916Z,7.30
2023-03-17T03:35:55.682Z,7.16
2023-03-17T03:38:23.425Z,7.55
2023-03-17T03:40:50.353Z,7.25
2023-03-17T03:43:23.381Z,7.64
2023-03-17T03:45:51.477Z,7.58
2023-03-17T03:48:21.206Z,7.24
2023-03-17T03:50:48.477Z,7.07
2023-03-17T03:53:23.872Z,7.28
2023-03-17T03:55:51.023Z,7.24
2023-03-17T03:58:17.986Z,7.61
2023-03-17T04:00:44.800Z,7.61
2023-03-17T04:03:11.625Z,6.70
2023-03-17T04:05:38.451Z,7.10
2023-03-17T04:08:05.902Z,6.20
2023-03-17T04:10:33.419Z,7.50
2023-03-17T04:13:00.271Z,7.39
2023-03-17T04:15:29.289Z,7.06
2023-03-17T04:17:56.162Z,7.36
2023-03-17T04:20:23.098Z,7.28
2023-03-17T04:22:49.800Z,7.04
2023-03-17T04:25:19.088Z,7.40
2023-03-17T04:27:45.969Z,7.44
2023-03-17T04:30:14.029Z,7.33
2023-03-17T04:32:42.050Z,7.44
2023-03-17T04:35:16.251Z,7.30
2023-03-17T04:37:44.240Z,6.93
2023-03-17T04:40:12.784Z,7.18
2023-03-17T04:42:40.012Z,7.39
2023-03-17T04:45:09.465Z,7.05
2023-03-17T04:47:36.201Z,7.40
2023-03-17T04:50:03.120Z,7.47
2023-03-17T04:52:31.297Z,7.08
2023-03-17T04:54:58.265Z,7.47
2023-03-17T04:57:24.971Z,7.45
2023-03-17T04:59:54.252Z,7.06
2023-03-17T05:02:23.769Z,7.52
2023-03-17T05:04:52.811Z,7.45
2023-03-17T05:07:19.820Z,7.48
2023-03-17T05:09:47.481Z,7.42
2023-03-17T05:12:15.017Z,7.50
2023-03-17T05:14:42.108Z,7.05
2023-03-17T05:17:08.910Z,7.27
2023-03-17T05:19:36.067Z,7.44
2023-03-17T05:22:05.572Z,7.41
2023-03-17T05:24:32.627Z,7.26
2023-03-17T05:27:01.635Z,6.91
2023-03-17T05:29:28.807Z,6.32
2023-03-17T05:31:55.922Z,7.25
2023-03-17T05:34:23.202Z,7.32
2023-03-17T05:36:50.506Z,6.90
2023-03-17T05:39:17.593Z,7.30
2023-03-17T05:41:45.019Z,7.30
2023-03-17T05:44:11.757Z,7.17
2023-03-17T05:46:41.440Z,6.88
2023-03-17T05:49:08.218Z,5.97
2023-03-17T05:51:38.297Z,6.74
2023-03-17T05:54:05.209Z,7.23
2023-03-17T05:56:33.623Z,7.05
2023-03-17T05:59:01.840Z,6.78
2023-03-17T06:01:29.183Z,6.69
2023-03-17T06:03:56.787Z,7.26
2023-03-17T06:06:27.205Z,7.25
2023-03-17T06:08:54.161Z,7.26
2023-03-17T06:11:21.675Z,7.35
2023-03-17T06:13:49.127Z,6.95
2023-03-17T06:16:18.968Z,6.98
2023-03-17T06:18:46.094Z,7.00
2023-03-17T06:21:15.332Z,7.48
2023-03-17T06:23:44.349Z,7.04
2023-03-17T06:26:11.139Z,7.42
2023-03-17T06:28:37.901Z,7.54
2023-03-17T06:31:07.236Z,7.63
2023-03-17T06:33:36.741Z,7.67
2023-03-17T06:36:03.999Z,7.83
2023-03-17T06:38:30.881Z,7.90
2023-03-17T06:40:58.233Z,7.86
2023-03-17T06:43:25.345Z,7.62
2023-03-17T06:45:52.885Z,8.15
2023-03-17T06:48:20.884Z,8.24
2023-03-17T06:50:50.213Z,7.92
2023-03-17T06:53:17.381Z,8.32
2023-03-17T06:55:45.079Z,8.14
2023-03-17T06:58:13.444Z,8.44
2023-03-17T07:00:40.784Z,8.35
2023-03-17T07:03:11.422Z,8.71
2023-03-17T07:05:40.849Z,8.57
2023-03-17T07:08:09.015Z,9.06
2023-03-17T07:10:36.903Z,9.21
2023-03-17T07:13:04.194Z,9.31
2023-03-17T07:15:34.958Z,8.86
2023-03-17T07:18:02.679Z,9.39
2023-03-17T07:20:29.344Z,9.49
2023-03-17T07:22:56.140Z,9.29
2023-03-17T07:25:22.844Z,9.67
2023-03-17T07:27:49.897Z,9.75
2023-03-17T07:30:19.233Z,9.85
2023-03-17T07:32:49.119Z,9.46
2023-03-17T07:35:16.810Z,9.57
2023-03-17T07:37:44.292Z,10.09
2023-03-17T07:40:11.679Z,10.25
2023-03-17T07:42:39.209Z,10.32
2023-03-17T07:45:08.620Z,10.03
2023-03-17T07:47:37.690Z,10.23
2023-03-17T07:50:04.615Z,10.20
2023-03-17T07:52:31.303Z,10.67
2023-03-17T07:54:58.490Z,10.37
2023-03-17T07:57:25.342Z,10.59
2023-03-17T07:59:51.993Z,10.96
2023-03-17T08:02:19.656Z,11.07
2023-03-17T08:04:48.730Z,10.84
2023-03-17T08:07:15.745Z,11.18
2023-03-17T08:09:42.711Z,11.20
2023-03-17T08:12:11.993Z,10.81
2023-03-17T08:14:39.049Z,11.13
2023-03-17T08:17:06.593Z,11.24
2023-03-17T08:19:33.463Z,11.32
2023-03-17T08:22:00.474Z,11.62
2023-03-17T08:24:27.139Z,11.75
2023-03-17T08:26:54.303Z,11.97
2023-03-17T08:29:21.308Z,12.02
2023-03-17T08:31:48.257Z,12.41
2023-03-17T08:34:16.770Z,12.51
2023-03-17T08:36:44.603Z,12.66
2023-03-17T08:39:11.296Z,12.41
2023-03-17T08:41:38.638Z,12.55
2023-03-17T08:44:05.747Z,13.05
2023-03-17T08:46:35.903Z,13.29
2023-03-17T08:49:03.463Z,13.52
2023-03-17T08:51:36.138Z,14.05
2023-03-17T08:54:06.956Z,13.99
2023-03-17T08:56:34.864Z,14.18
2023-03-17T08:59:05.573Z,14.63
2023-03-17T09:01:33.086Z,14.66
2023-03-17T09:04:00.528Z,14.52
2023-03-17T09:06:27.732Z,14.24
2023-03-17T09:08:57.261Z,14.21
2023-03-17T09:11:26.913Z,14.86
2023-03-17T09:13:54.916Z,14.81
2023-03-17T09:16:23.943Z,15.33
2023-03-17T09:18:51.155Z,15.54
2023-03-17T09:21:18.347Z,15.65
2023-03-17T09:23:47.270Z,15.05
2023-03-17T09:26:14.284Z,15.24
2023-03-17T09:28:42.798Z,14.98
2023-03-17T09:31:12.992Z,15.13
2023-03-17T09:33:42.977Z,15.07
2023-03-17T09:36:13.640Z,15.17
2023-03-17T09:38:42.772Z,14.94
2023-03-17T09:41:23.724Z,15.38
2023-03-17T09:44:09.177Z,15.46
2023-03-17T09:47:08.529Z,15.53
2023-03-17T09:49:45.785Z,15.63
2023-03-17T09:52:18.844Z,15.82
2023-03-17T09:54:49.357Z,15.46
2023-03-17T09:57:45.267Z,16.02
2023-03-17T10:00:16.835Z,16.18
2023-03-17T10:02:47.326Z,15.97
2023-03-17T10:05:14.023Z,16.57
2023-03-17T10:07:55.735Z,16.80
2023-03-17T10:10:37.278Z,17.04
2023-03-17T10:13:29.029Z,17.26
2023-03-17T10:16:06.256Z,16.61
2023-03-17T10:18:46.953Z,17.07
2023-03-17T10:21:18.690Z,17.63
2023-03-17T10:23:45.963Z,17.38
2023-03-17T10:26:33.310Z,17.46
2023-03-17T10:29:04.330Z,17.77
2023-03-17T10:31:33.483Z,17.60
2023-03-17T10:34:13.401Z,17.98
2023-03-17T10:36:53.658Z,18.01
2023-03-17T10:39:23.791Z,17.79
2023-03-17T10:42:09.327Z,18.16
2023-03-17T10:44:36.057Z,18.25
2023-03-17T10:47:03.209Z,18.24
2023-03-17T10:49:36.176Z,18.14
2023-03-17T10:52:08.178Z,17.98
2023-03-17T10:54:38.561Z,18.04
2023-03-17T10:57:14.075Z,18.10
2023-03-17T10:59:53.648Z,18.04
2023-03-17T11:02:20.549Z,18.58
2023-03-17T11:04:48.907Z,18.60
2023-03-17T11:07:27.953Z,18.41
2023-03-17T11:10:02.391Z,17.95
2023-03-17T11:12:30.762Z,18.07
2023-03-17T11:15:18.826Z,18.04
2023-03-17T11:17:58.907Z,18.16
2023-03-17T11:20:48.895Z,18.05
2023-03-17T11:23:49.659Z,18.56
2023-03-17T11:26:38.211Z,18.63
2023-03-17T11:29:21.186Z,18.66
2023-03-17T11:32:07.191Z,18.84
2023-03-17T11:35:08.553Z,18.96
2023-03-17T11:38:01.926Z,18.90
2023-03-17T11:41:01.141Z,18.95
2023-03-17T11:43:35.502Z,19.05
2023-03-17T11:46:20.497Z,19.16
2023-03-17T11:49:00.162Z,19.27
2023-03-17T11:51:31.136Z,19.33
2023-03-17T11:54:26.907Z,19.28
2023-03-17T11:57:01.984Z,19.32
2023-03-17T11:59:32.986Z,19.04
2023-03-17T12:02:11.255Z,19.26
2023-03-17T12:04:48.767Z,19.76
2023-03-17T12:07:23.771Z,19.88
2023-03-17T12:10:01.032Z,19.93
2023-03-17T12:12:38.226Z,19.73
2023-03-17T12:15:17.236Z,19.95
2023-03-17T12:17:59.891Z,19.90
2023-03-17T12:20:35.636Z,20.18
2023-03-17T12:23:10.774Z,19.90
2023-03-17T12:25:41.022Z,20.43
2023-03-17T12:28:27.870Z,20.36
2023-03-17T12:31:14.750Z,20.79
2023-03-17T12:34:00.201Z,20.78
2023-03-17T12:36:28.149Z,20.74
2023-03-17T12:39:06.745Z,20.80
2023-03-17T12:41:45.368Z,20.89
2023-03-17T12:44:17.910Z,20.90
2023-03-17T12:47:06.987Z,20.93
2023-03-17T12:50:06.058Z,20.94
2023-03-17T12:52:54.284Z,21.07
2023-03-17T12:55:25.858Z,21.00
2023-03-17T12:58:05.076Z,21.03
2023-03-17T13:00:36.619Z,20.78
2023-03-17T13:03:28.446Z,21.14
2023-03-17T13:06:04.537Z,21.14
2023-03-17T13:08:42.641Z,21.17
2023-03-17T13:11:18.740Z,21.23
2023-03-17T13:14:23.793Z,21.34
2023-03-17T13:16:50.788Z,21.36
2023-03-17T13:19:24.899Z,21.37
2023-03-17T13:22:01.198Z,21.30
2023-03-17T13:24:47.740Z,21.22
2023-03-17T13:27:34.368Z,21.21
2023-03-17T13:30:25.792Z,20.88
2023-03-17T13:33:26.044Z,21.17
2023-03-17T13:35:52.745Z,21.22
2023-03-17T13:38:48.573Z,21.26
2023-03-17T13:41:42.708Z,21.32
2023-03-17T13:44:32.811Z,21.35
2023-03-17T13:47:27.029Z,20.93
2023-03-17T13:50:01.097Z,21.25
2023-03-17T13:52:50.824Z,21.21
2023-03-17T13:55:20.647Z,21.11
2023-03-17T13:58:13.468Z,21.01
2023-03-17T14:00:46.881Z,20.57
2023-03-17T14:03:20.000Z,20.52
2023-03-17T14:05:54.070Z,20.94
2023-03-17T14:08:34.871Z,21.02
2023-03-17T14:11:19.355Z,20.81
2023-03-17T14:13:57.984Z,21.04
2023-03-17T14:16:29.855Z,20.40
2023-03-17T14:19:17.773Z,20.55
2023-03-17T14:21:44.637Z,20.74
2023-03-17T14:24:39.345Z,20.84
2023-03-17T14:27:10.411Z,20.97
2023-03-17T14:29:39.810Z,20.90
2023-03-17T14:32:16.398Z,20.90
2023-03-17T14:34:45.904Z,20.44
2023-03-17T14:37:13.099Z,20.61
2023-03-17T14:39:48.446Z,20.03
2023-03-17T14:42:19.938Z,20.10
2023-03-17T14:44:47.583Z,20.26
2023-03-17T14:47:25.425Z,20.26
2023-03-17T14:49:55.610Z,20.34
2023-03-17T14:52:28.712Z,20.35
2023-03-17T14:54:59.729Z,20.32
2023-03-17T14:57:31.450Z,20.34
2023-03-17T15:00:01.043Z,20.46
2023-03-17T15:02:31.109Z,20.53
2023-03-17T15:05:36.421Z,20.54
2023-03-17T15:08:23.174Z,20.26
2023-03-17T15:10:50.380Z,20.49
2023-03-17T15:13:17.227Z,20.07
2023-03-17T15:15:46.075Z,20.08
2023-03-17T15:18:20.180Z,20.31
2023-03-17T15:20:47.449Z,20.40
2023-03-17T15:23:21.074Z,20.34
2023-03-17T15:25:56.521Z,20.32
2023-03-17T15:28:29.071Z,20.16
2023-03-17T15:31:10.900Z,19.99
2023-03-17T15:33:42.298Z,19.89
2023-03-17T15:36:29.338Z,20.24
2023-03-17T15:38:58.275Z,20.17
2023-03-17T15:41:24.963Z,19.83
2023-03-17T15:43:51.600Z,20.13
2023-03-17T15:46:24.822Z,19.78
2023-03-17T15:48:51.672Z,19.91
2023-03-17T15:51:18.724Z,20.04
2023-03-17T15:53:45.632Z,19.75
2023-03-17T15:56:19.214Z,19.68
2023-03-17T15:58:51.663Z,20.01
2023-03-17T16:01:19.962Z,20.00
2023-03-17T16:03:49.665Z,19.67
2023-03-17T16:06:20.222Z,19.91
2023-03-17T16:08:47.021Z,19.85
2023-03-17T16:11:19.967Z,19.42
2023-03-17T16:13:48.764Z,19.62
2023-03-17T16:16:21.652Z,19.61
2023-03-17T16:18:51.018Z,19.52
2023-03-17T16:21:18.014Z,19.28
2023-03-17T16:23:45.325Z,19.37
2023-03-17T16:26:15.920Z,19.02
2023-03-17T16:28:45.714Z,19.23
2023-03-17T16:31:41.220Z,19.15
2023-03-17T16:34:26.462Z,19.09
2023-03-17T16:36:54.756Z,18.88
2023-03-17T16:39:25.847Z,18.96
2023-03-17T16:41:53.708Z,18.90
2023-03-17T16:44:30.202Z,18.84
2023-03-17T16:46:59.581Z,18.62
2023-03-17T16:49:27.254Z,18.64
2023-03-17T16:51:53.851Z,18.62
2023-03-17T16:54:20.829Z,18.28
2023-03-17T16:56:47.728Z,18.18
2023-03-17T16:59:20.252Z,18.04
2023-03-17T17:01:47.124Z,18.26
2023-03-17T17:04:16.084Z,17.98
2023-03-17T17:06:42.738Z,18.18
2023-03-17T17:09:09.708Z,17.89
2023-03-17T17:11:36.462Z,17.68
2023-03-17T17:14:03.630Z,17.65
2023-03-17T17:16:35.411Z,17.93
2023-03-17T17:19:03.952Z,17.52
2023-03-17T17:21:32.268Z,17.29
2023-03-17T17:23:59.209Z,17.67
2023-03-17T17:26:25.828Z,17.63
2023-03-17T17:28:52.475Z,17.26
2023-03-17T17:31:21.587Z,17.54
2023-03-17T17:33:48.243Z,17.50
2023-03-17T17:36:17.198Z,17.42
2023-03-17T17:38:44.406Z,17.39
2023-03-17T17:41:12.325Z,17.29
2023-03-17T17:43:39.397Z,16.89
2023-03-17T17:46:16.355Z,16.89
2023-03-17T17:48:45.566Z,17.20
2023-03-17T17:51:14.424Z,17.14
2023-03-17T17:53:43.429Z,17.08
2023-03-17T17:56:17.803Z,16.95
2023-03-17T17:58:49.870Z,16.95
2023-03-17T18:01:20.187Z,16.91
2023-03-17T18:03:46.935Z,16.52
2023-03-17T18:06:13.893Z,16.45
2023-03-17T18:08:41.268Z,16.79
2023-03-17T18:11:08.178Z,16.75
2023-03-17T18:13:36.423Z,16.70
2023-03-17T18:16:10.043Z,16.61
2023-03-17T18:18:40.734Z,15.87
2023-03-17T18:21:08.266Z,16.52
2023-03-17T18:23:36.414Z,16.39
2023-03-17T18:26:06.139Z,16.46
2023-03-17T18:28:33.171Z,16.42
2023-03-17T18:31:06.751Z,16.22
2023-03-17T18:33:33.909Z,16.23
2023-03-17T18:36:00.847Z,16.29
2023-03-17T18:38:27.760Z,16.09
2023-03-17T18:40:54.482Z,16.28
2023-03-17T18:43:21.553Z,15.89
2023-03-17T18:45:48.641Z,16.24
2023-03-17T18:48:15.537Z,16.12
2023-03-17T18:50:42.843Z,15.83
2023-03-17T18:53:09.532Z,16.14
2023-03-17T18:55:36.227Z,16.17
2023-03-17T18:58:03.039Z,16.12
2023-03-17T19:00:30.148Z,16.02
2023-03-17T19:02:57.011Z,15.89
2023-03-17T19:05:24.568Z,16.00
2023-03-17T19:07:53.773Z,15.72
2023-03-17T19:10:20.626Z,15.31
2023-03-17T19:12:47.719Z,15.63
2023-03-17T19:15:14.819Z,15.62
2023-03-17T19:17:42.056Z,15.93
2023-03-17T19:20:10.242Z,15.58
2023-03-17T19:22:37.389Z,15.94
2023-03-17T19:25:07.086Z,15.49
2023-03-17T19:27:36.646Z,15.57
2023-03-17T19:30:03.730Z,15.51
2023-03-17T19:32:30.562Z,15.76
2023-03-17T19:34:57.721Z,15.71
2023-03-17T19:37:25.245Z,15.23
2023-03-17T19:39:51.929Z,15.34
2023-03-17T19:42:18.933Z,15.45
2023-03-17T19:44:45.664Z,15.34
2023-03-17T19:47:12.804Z,15.77
2023-03-17T19:49:42.462Z,15.72
2023-03-17T19:52:12.027Z,15.47
2023-03-17T19:54:43.726Z,15.73
2023-03-17T19:57:13.676Z,15.70
2023-03-17T19:59:50.693Z,15.57
2023-03-17T20:02:17.682Z,15.29
2023-03-17T20:04:44.957Z,15.56
2023-03-17T20:07:14.111Z,15.20
2023-03-17T20:09:44.710Z,15.57
2023-03-17T20:12:11.666Z,15.22
2023-03-17T20:14:41.491Z,15.60
2023-03-17T20:17:08.275Z,15.59
2023-03-17T20:19:39.600Z,15.57
2023-03-17T20:22:09.753Z,15.53
2023-03-17T20:24:36.671Z,15.17
2023-03-17T20:27:08.052Z,15.51
2023-03-17T20:29:34.864Z,15.49
2023-03-17T20:32:02.327Z,15.47
2023-03-17T20:34:29.459Z,15.45
2023-03-17T20:36:56.641Z,15.31
2023-03-17T20:39:28.378Z,15.41
2023-03-17T20:41:57.379Z,15.31
2023-03-17T20:44:24.430Z,14.99
2023-03-17T20:46:51.521Z,14.95
2023-03-17T20:49:18.295Z,15.06
2023-03-17T20:51:46.436Z,15.21
2023-03-17T20:54:15.455Z,15.14
2023-03-17T20:56:42.210Z,15.30
2023-03-17T20:59:10.118Z,14.83
2023-03-17T21:01:38.781Z,15.29
2023-03-17T21:04:09.013Z,14.83
2023-03-17T21:06:37.276Z,15.24
2023-03-17T21:09:04.921Z,14.86
2023-03-17T21:11:31.719Z,15.16
2023-03-17T21:13:58.460Z,14.69
2023-03-17T21:16:28.274Z,14.59
2023-03-17T21:18:55.290Z,15.15
2023-03-17T21:21:25.129Z,15.10
2023-03-17T21:23:51.876Z,15.08
2023-03-17T21:26:19.656Z,15.08
2023-03-17T21:28:46.580Z,15.04
2023-03-17T21:31:17.305Z,14.99
2023-03-17T21:33:44.707Z,15.01
2023-03-17T21:36:11.751Z,14.69
2023-03-17T21:38:39.763Z,14.52
2023-03-17T21:41:29.624Z,14.65
2023-03-17T21:43:58.038Z,14.39
2023-03-17T21:46:25.900Z,14.69
2023-03-17T21:48:54.264Z,14.31
2023-03-17T21:51:21.020Z,14.67
2023-03-17T21:53:50.701Z,14.17
2023-03-17T21:56:20.643Z,14.62
2023-03-17T21:58:50.263Z,13.18
2023-03-17T22:01:19.547Z,14.51
2023-03-17T22:03:47.408Z,14.20
2023-03-17T22:06:18.364Z,14.61
2023-03-17T22:08:45.908Z,14.47
2023-03-17T22:11:17.879Z,14.23
2023-03-17T22:13:47.917Z,14.47
2023-03-17T22:16:20.817Z,14.39
2023-03-17T22:18:47.813Z,13.89
2023-03-17T22:21:14.937Z,13.96
2023-03-17T22:23:42.641Z,14.24
2023-03-17T22:26:13.419Z,14.16
2023-03-17T22:28:41.243Z,13.79
2023-03-17T22:31:16.988Z,14.09
2023-03-17T22:33:48.466Z,13.42
2023-03-17T22:36:16.350Z,13.94
2023-03-17T22:38:46.396Z,13.77
2023-03-17T22:41:17.264Z,13.37
2023-03-17T22:43:44.946Z,13.64
2023-03-17T22:46:12.929Z,13.71
2023-03-17T22:48:42.741Z,13.57
2023-03-17T22:51:12.050Z,13.76
2023-03-17T22:53:40.120Z,13.40
2023-03-17T22:56:11.213Z,13.65
2023-03-17T22:58:38.684Z,13.71
2023-03-17T23:01:07.034Z,13.29
2023-03-17T23:03:35.794Z,13.66
2023-03-17T23:06:03.957Z,13.63
2023-03-17T23:08:35.500Z,13.27
2023-03-17T23:11:10.711Z,13.53
2023-03-17T23:13:38.008Z,13.47
2023-03-17T23:16:05.083Z,13.33
2023-03-17T23:18:32.463Z,13.44
2023-03-17T23:21:00.382Z,13.27
2023-03-17T23:23:27.487Z,13.25
2023-03-17T23:25:56.825Z,13.40
2023-03-17T23:28:24.246Z,13.37
2023-03-17T23:30:52.706Z,12.92
2023-03-17T23:33:21.923Z,13.36
2023-03-17T23:35:50.434Z,12.89
2023-03-17T23:38:21.579Z,13.31
2023-03-17T23:40:49.839Z,13.27
2023-03-17T23:43:17.014Z,13.17
2023-03-17T23:45:45.110Z,13.25
2023-03-17T23:48:14.497Z,12.25
2023-03-17T23:50:42.610Z,13.01
2023-03-17T23:53:09.736Z,13.16
2023-03-17T23:55:38.838Z,13.24
2023-03-17T23:58:05.883Z,13.23
